createdAt,value
2023-01-11T00:00:56.599Z,1.1
2023-01-11T00:02:04.328Z,2.3
2023-01-11T00:03:13.975Z,0.7
2023-01-11T00:04:22.720Z,0.7
2023-01-11T00:05:32.317Z,0.7
2023-01-11T00:06:41.023Z,0.5
2023-01-11T00:07:49.711Z,0.7
2023-01-11T00:08:59.487Z,0.5
2023-01-11T00:10:08.160Z,0.5
2023-01-11T00:11:16.891Z,0.9
2023-01-11T00:12:26.586Z,0.7
2023-01-11T00:13:36.264Z,0.6
2023-01-11T00:14:44.951Z,0.8
2023-01-11T00:15:54.730Z,1.2
2023-01-11T00:17:03.279Z,1.3
2023-01-11T00:18:12.949Z,0.6
2023-01-11T00:19:21.613Z,0.8
2023-01-11T00:20:29.344Z,0.7
2023-01-11T00:21:39.033Z,1
2023-01-11T00:22:47.691Z,0.7
2023-01-11T00:23:56.382Z,0.6
2023-01-11T00:25:05.085Z,0.7
2023-01-11T00:26:14.721Z,0.6
2023-01-11T00:27:24.391Z,0.8
2023-01-11T00:28:34.076Z,0.6
2023-01-11T00:29:41.740Z,0.7
2023-01-11T00:30:51.435Z,1
2023-01-11T00:32:00.186Z,0.7
2023-01-11T00:33:08.859Z,0.8
2023-01-11T00:34:18.546Z,0.9
2023-01-11T00:35:28.243Z,0.9
2023-01-11T00:36:37.962Z,0.8
2023-01-11T00:37:47.597Z,0.8
2023-01-11T00:38:55.262Z,0.8
2023-01-11T00:40:04.928Z,0.9
2023-01-11T00:41:13.598Z,1.2
2023-01-11T00:42:23.307Z,0.7
2023-01-11T00:43:32.977Z,0.8
2023-01-11T00:44:41.647Z,0.8
2023-01-11T00:45:51.379Z,1
2023-01-11T00:46:59.992Z,0.8
2023-01-11T00:48:07.681Z,0.9
2023-01-11T00:49:16.344Z,0.8
2023-01-11T00:50:26.030Z,1.2
2023-01-11T00:51:35.712Z,0.9
2023-01-11T00:52:45.422Z,0.9
2023-01-11T00:53:55.119Z,1.1
2023-01-11T00:55:04.805Z,1.5
2023-01-11T00:56:12.469Z,1
2023-01-11T00:57:20.130Z,1.2
2023-01-11T00:58:29.811Z,1.7
2023-01-11T00:59:38.492Z,1.2
2023-01-11T01:00:47.161Z,1
2023-01-11T01:01:56.837Z,1.3
2023-01-11T01:03:05.501Z,1.3
2023-01-11T01:04:14.200Z,1.2
2023-01-11T01:05:23.883Z,1.6
2023-01-11T01:06:32.581Z,1.8
2023-01-11T01:07:42.242Z,1.5
2023-01-11T01:08:50.967Z,1.7
2023-01-11T01:10:00.619Z,2
2023-01-11T01:11:10.313Z,1.6
2023-01-11T01:12:17.987Z,1.8
2023-01-11T01:13:27.664Z,2
2023-01-11T01:14:36.333Z,3.5
2023-01-11T01:15:44.133Z,2.4
2023-01-11T01:16:53.822Z,2.9
2023-01-11T01:18:02.471Z,3.6
2023-01-11T01:19:11.145Z,3.6
2023-01-11T01:20:19.801Z,2.8
2023-01-11T01:21:27.488Z,2.5
2023-01-11T01:22:37.171Z,2.2
2023-01-11T01:23:45.836Z,1.9
2023-01-11T01:24:53.526Z,1.1
2023-01-11T01:26:03.159Z,1.5
2023-01-11T01:27:12.836Z,1.5
2023-01-11T01:28:21.510Z,1
2023-01-11T01:29:30.205Z,1.1
2023-01-11T01:30:38.916Z,0.9
2023-01-11T01:31:47.617Z,0.9
2023-01-11T01:32:57.293Z,0.7
2023-01-11T01:34:07.012Z,0.8
2023-01-11T01:35:15.803Z,0.7
2023-01-11T01:36:23.594Z,0.5
2023-01-11T01:37:33.283Z,0.6
2023-01-11T01:38:41.947Z,0.4
2023-01-11T01:39:50.644Z,0.6
2023-01-11T01:40:58.323Z,0.6
2023-01-11T01:42:07.966Z,0.7
2023-01-11T01:43:17.659Z,0.5
2023-01-11T01:44:25.352Z,0.6
2023-01-11T01:45:34.119Z,0.6
2023-01-11T01:46:43.803Z,0.4
2023-01-11T01:47:53.471Z,1
2023-01-11T01:49:03.177Z,0.7
2023-01-11T01:50:12.836Z,0.6
2023-01-11T01:51:21.544Z,0.5
2023-01-11T01:52:31.178Z,0.5
2023-01-11T01:53:39.853Z,0.4
2023-01-11T01:54:47.571Z,0.5
2023-01-11T01:55:57.206Z,0.6
2023-01-11T01:57:06.967Z,0.7
2023-01-11T01:58:16.607Z,0.5
2023-01-11T01:59:26.341Z,0.6
2023-01-11T02:00:36.079Z,0.3
2023-01-11T02:01:45.790Z,0.4
2023-01-11T02:02:55.475Z,0.4
2023-01-11T02:04:04.096Z,0.5
2023-01-11T02:05:13.800Z,0.5
2023-01-11T02:06:23.491Z,1.2
2023-01-11T02:07:33.142Z,0.6
2023-01-11T02:08:41.811Z,0.5
2023-01-11T02:09:51.476Z,1
2023-01-11T02:11:01.158Z,0.5
2023-01-11T02:12:09.836Z,0.8
2023-01-11T02:13:17.470Z,0.6
2023-01-11T02:14:27.205Z,0.7
2023-01-11T02:15:36.891Z,0.6
2023-01-11T02:16:45.534Z,1.7
2023-01-11T02:17:54.202Z,1
2023-01-11T02:19:02.908Z,0.7
2023-01-11T02:20:12.562Z,1.4
2023-01-11T02:21:21.273Z,1.9
2023-01-11T02:22:29.944Z,1.9
2023-01-11T02:23:39.601Z,2.1
2023-01-11T02:24:48.261Z,2.1
2023-01-11T02:25:57.970Z,2.4
2023-01-11T02:27:06.705Z,1.9
2023-01-11T02:28:15.385Z,2
2023-01-11T02:29:25.072Z,2.5
2023-01-11T02:30:34.735Z,2.6
2023-01-11T02:31:43.434Z,2.1
2023-01-11T02:32:53.096Z,2.3
2023-01-11T02:34:01.770Z,2.1
2023-01-11T02:35:10.429Z,1.2
2023-01-11T02:36:19.104Z,0.9
2023-01-11T02:37:26.793Z,1.1
2023-01-11T02:38:36.495Z,1.6
2023-01-11T02:39:46.158Z,1.8
2023-01-11T02:40:53.947Z,1.5
2023-01-11T02:42:02.630Z,1.8
2023-01-11T02:43:12.332Z,2.3
2023-01-11T02:44:21.044Z,1.8
2023-01-11T02:45:30.692Z,1.9
2023-01-11T02:46:38.369Z,2
2023-01-11T02:47:48.028Z,1.4
2023-01-11T02:48:57.761Z,1.9
2023-01-11T02:50:06.426Z,1.9
2023-01-11T02:51:15.105Z,1.8
2023-01-11T02:52:23.792Z,1.6
2023-01-11T02:53:33.441Z,1.9
2023-01-11T02:54:42.136Z,1.9
2023-01-11T02:55:51.800Z,1.9
2023-01-11T02:57:01.493Z,1.6
2023-01-11T02:58:11.137Z,1.5
2023-01-11T02:59:19.815Z,1.4
2023-01-11T03:00:29.545Z,1.5
2023-01-11T03:01:39.203Z,1.7
2023-01-11T03:02:48.863Z,1.5
2023-01-11T03:03:57.479Z,1.5
2023-01-11T03:05:06.132Z,1
2023-01-11T03:06:15.802Z,1.3
2023-01-11T03:07:25.466Z,1.9
2023-01-11T03:08:34.122Z,1.6
2023-01-11T03:09:43.774Z,1.7
2023-01-11T03:10:52.430Z,1.4
2023-01-11T03:12:00.113Z,1
2023-01-11T03:13:07.744Z,1.7
2023-01-11T03:14:15.411Z,1.3
2023-01-11T03:15:26.074Z,2.2
2023-01-11T03:16:34.755Z,1.3
2023-01-11T03:17:42.389Z,1.2
2023-01-11T03:18:52.056Z,1.2
2023-01-11T03:20:00.689Z,0.9
2023-01-11T03:21:10.343Z,0.8
2023-01-11T03:22:19.004Z,1
2023-01-11T03:23:26.662Z,0.7
2023-01-11T03:24:36.322Z,0.5
2023-01-11T03:25:45.982Z,0.7
2023-01-11T03:26:54.649Z,0.8
2023-01-11T03:28:03.305Z,0.6
2023-01-11T03:29:11.983Z,0.7
2023-01-11T03:30:21.672Z,0.7
2023-01-11T03:31:30.340Z,0.7
2023-01-11T03:32:38.997Z,0.6
2023-01-11T03:33:48.643Z,0.4
2023-01-11T03:34:56.313Z,0.5
2023-01-11T03:36:05.968Z,0.8
2023-01-11T03:37:14.656Z,0.6
2023-01-11T03:38:22.303Z,0.5
2023-01-11T03:39:31.995Z,0.6
2023-01-11T03:40:41.688Z,0.5
2023-01-11T03:41:50.345Z,0.5
2023-01-11T03:43:00.001Z,0.6
2023-01-11T03:44:08.655Z,0.8
2023-01-11T03:45:18.344Z,0.5
2023-01-11T03:46:26.056Z,0.6
2023-01-11T03:47:34.725Z,0.5
2023-01-11T03:48:44.382Z,0.5
2023-01-11T03:49:54.005Z,0.7
2023-01-11T03:51:03.729Z,0.6
2023-01-11T03:52:13.394Z,0.7
2023-01-11T03:53:21.042Z,0.7
2023-01-11T03:54:30.697Z,1.1
2023-01-11T03:55:39.454Z,0.8
2023-01-11T03:56:48.078Z,0.7
2023-01-11T03:57:58.774Z,0.7
2023-01-11T03:59:08.446Z,0.8
2023-01-11T04:00:17.120Z,0.6
2023-01-11T04:01:25.790Z,0.8
2023-01-11T04:02:34.427Z,0.8
2023-01-11T04:03:44.149Z,0.9
2023-01-11T04:04:52.871Z,0.8
2023-01-11T04:06:00.502Z,0.8
2023-01-11T04:07:10.179Z,0.7
2023-01-11T04:08:18.837Z,0.9
2023-01-11T04:09:27.526Z,0.9
2023-01-11T04:10:36.181Z,0.8
2023-01-11T04:11:44.851Z,0.6
2023-01-11T04:12:54.539Z,0.7
2023-01-11T04:14:03.187Z,1
2023-01-11T04:15:11.921Z,0.9
2023-01-11T04:16:21.654Z,0.5
2023-01-11T04:17:30.305Z,0.4
2023-01-11T04:18:39.041Z,0.5
2023-01-11T04:19:48.697Z,0.5
2023-01-11T04:20:57.390Z,0.4
2023-01-11T04:22:07.036Z,0.4
2023-01-11T04:23:15.732Z,0.5
2023-01-11T04:24:23.366Z,0.4
2023-01-11T04:25:33.042Z,0.3
2023-01-11T04:26:41.716Z,0.4
2023-01-11T04:27:50.375Z,0.4
2023-01-11T04:28:59.021Z,0.6
2023-01-11T04:30:07.690Z,0.3
2023-01-11T04:31:17.447Z,0.6
2023-01-11T04:32:26.044Z,0.7
2023-01-11T04:33:33.708Z,0.5
2023-01-11T04:34:43.401Z,0.7
2023-01-11T04:35:52.101Z,0.8
2023-01-11T04:37:00.769Z,0.7
2023-01-11T04:38:10.414Z,1.1
2023-01-11T04:39:18.066Z,0.8
2023-01-11T04:40:27.744Z,0.9
2023-01-11T04:41:36.391Z,0.9
2023-01-11T04:42:45.050Z,1
2023-01-11T04:43:54.720Z,1.1
2023-01-11T04:45:04.387Z,1.1
2023-01-11T04:46:14.052Z,1.3
2023-01-11T04:47:22.705Z,1.1
2023-01-11T04:48:32.366Z,1.1
2023-01-11T04:49:42.108Z,1.3
2023-01-11T04:50:51.789Z,1.2
2023-01-11T04:52:01.465Z,1.1
2023-01-11T04:53:11.205Z,1.1
2023-01-11T04:54:20.847Z,1.6
2023-01-11T04:55:29.533Z,1.2
2023-01-11T04:56:38.203Z,1.4
2023-01-11T04:57:47.900Z,1.6
2023-01-11T04:58:56.551Z,1.3
2023-01-11T05:00:06.208Z,1
2023-01-11T05:01:14.012Z,1
2023-01-11T05:02:23.533Z,0.8
2023-01-11T05:03:32.190Z,0.8
2023-01-11T05:04:41.854Z,0.7
2023-01-11T05:05:51.508Z,0.7
2023-01-11T05:06:59.373Z,0.9
2023-01-11T05:08:09.151Z,0.6
2023-01-11T05:09:17.852Z,1
2023-01-11T05:10:26.564Z,1.2
2023-01-11T05:11:35.315Z,0.7
2023-01-11T05:12:44.960Z,2.1
2023-01-11T05:13:53.614Z,1.4
2023-01-11T05:15:01.269Z,1.2
2023-01-11T05:16:10.946Z,1.3
2023-01-11T05:17:20.611Z,1.6
2023-01-11T05:18:29.373Z,1.7
2023-01-11T05:19:37.005Z,1.6
2023-01-11T05:20:46.699Z,1.2
2023-01-11T05:21:55.379Z,1.3
2023-01-11T05:23:04.035Z,1
2023-01-11T05:24:12.774Z,1.4
2023-01-11T05:25:21.647Z,1.2
2023-01-11T05:26:32.684Z,1
2023-01-11T05:27:41.308Z,1
2023-01-11T05:28:50.966Z,0.9
2023-01-11T05:29:59.860Z,0.9
2023-01-11T05:31:08.507Z,1.2
2023-01-11T05:32:18.183Z,1.1
2023-01-11T05:33:26.822Z,1
2023-01-11T05:34:35.510Z,1
2023-01-11T05:35:44.162Z,1
2023-01-11T05:36:51.869Z,1.4
2023-01-11T05:38:01.546Z,1.1
2023-01-11T05:39:10.199Z,1.1
2023-01-11T05:40:20.054Z,1.1
2023-01-11T05:41:29.768Z,3.2
2023-01-11T05:42:39.907Z,1.2
2023-01-11T05:43:49.587Z,1.7
2023-01-11T05:44:58.358Z,2.1
2023-01-11T05:46:15.328Z,1.5
2023-01-11T05:47:25.286Z,1.4
2023-01-11T05:48:35.365Z,1.7
2023-01-11T05:49:44.561Z,1.6
2023-01-11T05:50:54.374Z,1.5
2023-01-11T05:52:04.075Z,1.7
2023-01-11T05:53:12.847Z,1.8
2023-01-11T05:54:22.600Z,1.8
2023-01-11T05:55:31.479Z,1.8
2023-01-11T05:56:40.174Z,1.8
2023-01-11T05:57:50.016Z,1.8
2023-01-11T05:59:00.037Z,1.7
2023-01-11T06:00:09.064Z,1.3
2023-01-11T06:01:17.922Z,1.7
2023-01-11T06:02:25.725Z,1.9
2023-01-11T06:03:35.371Z,1.7
2023-01-11T06:04:45.162Z,1.9
2023-01-11T06:05:53.944Z,1.8
2023-01-11T06:07:03.785Z,2.5
2023-01-11T06:08:13.543Z,1.8
2023-01-11T06:09:23.316Z,2.1
2023-01-11T06:10:32.047Z,2
2023-01-11T06:11:40.765Z,1.8
2023-01-11T06:12:50.520Z,1.7
2023-01-11T06:14:00.200Z,2.3
2023-01-11T06:15:07.875Z,2
2023-01-11T06:16:17.689Z,2.2
2023-01-11T06:17:26.403Z,1.9
2023-01-11T06:18:35.152Z,2.2
2023-01-11T06:19:43.847Z,1.8
2023-01-11T06:20:52.581Z,1.9
2023-01-11T06:22:02.391Z,1.8
2023-01-11T06:23:11.118Z,1.6
2023-01-11T06:24:19.807Z,1.7
2023-01-11T06:25:29.504Z,1.8
2023-01-11T06:26:39.278Z,1.9
2023-01-11T06:27:49.027Z,2.2
2023-01-11T06:28:57.739Z,2.4
2023-01-11T06:30:07.441Z,2.7
2023-01-11T06:31:18.119Z,2.8
2023-01-11T06:32:26.895Z,2.5
2023-01-11T06:33:35.705Z,2.3
2023-01-11T06:34:45.425Z,2.6
2023-01-11T06:35:55.133Z,1.8
2023-01-11T06:37:03.860Z,1.8
2023-01-11T06:38:13.579Z,1.9
2023-01-11T06:39:22.317Z,2.6
2023-01-11T06:40:32.068Z,1.4
2023-01-11T06:41:41.767Z,1.2
2023-01-11T06:42:50.466Z,1.3
2023-01-11T06:44:00.156Z,1.1
2023-01-11T06:45:09.830Z,1.1
2023-01-11T06:46:19.622Z,1.5
2023-01-11T06:47:29.255Z,1.6
2023-01-11T06:48:36.934Z,1.2
2023-01-11T06:49:46.663Z,1.1
2023-01-11T06:50:56.464Z,1.4
2023-01-11T06:52:05.144Z,1.3
2023-01-11T06:53:14.845Z,1.2
2023-01-11T06:54:23.521Z,2.2
2023-01-11T06:55:31.195Z,1.4
2023-01-11T06:56:39.920Z,1
2023-01-11T06:57:48.715Z,1.6
2023-01-11T06:58:58.415Z,1.2
2023-01-11T07:00:07.121Z,1.1
2023-01-11T07:01:15.889Z,1.7
2023-01-11T07:02:25.563Z,1.3
2023-01-11T07:03:34.241Z,1.5
2023-01-11T07:04:43.955Z,1.1
2023-01-11T07:05:52.635Z,1.8
2023-01-11T07:07:01.321Z,1.1
2023-01-11T07:08:11.052Z,1.3
2023-01-11T07:09:19.749Z,2.3
2023-01-11T07:10:28.400Z,2.6
2023-01-11T07:11:38.051Z,1.4
2023-01-11T07:12:47.757Z,0.9
2023-01-11T07:13:57.498Z,1.3
2023-01-11T07:15:06.160Z,1.6
2023-01-11T07:16:14.909Z,1.6
2023-01-11T07:17:24.502Z,3.7
2023-01-11T07:18:34.175Z,1.1
2023-01-11T07:19:42.871Z,1.6
2023-01-11T07:20:52.530Z,1.2
2023-01-11T07:22:01.195Z,1.3
2023-01-11T07:23:10.870Z,0.9
2023-01-11T07:24:19.576Z,1.3
2023-01-11T07:25:28.306Z,1.4
2023-01-11T07:26:36.977Z,2
2023-01-11T07:27:44.641Z,1.9
2023-01-11T07:28:54.329Z,1.5
2023-01-11T07:30:03.050Z,1.7
2023-01-11T07:31:11.874Z,2.9
2023-01-11T07:32:21.497Z,3.5
2023-01-11T07:33:31.164Z,2.8
2023-01-11T07:34:40.917Z,3.8
2023-01-11T07:35:49.743Z,4.6
2023-01-11T07:36:58.431Z,2
2023-01-11T07:38:08.171Z,2.5
2023-01-11T07:39:16.933Z,3
2023-01-11T07:40:25.609Z,1.9
2023-01-11T07:41:35.360Z,2.7
2023-01-11T07:42:45.998Z,4.4
2023-01-11T07:43:55.720Z,4.1
2023-01-11T07:45:05.372Z,2.7
2023-01-11T07:46:15.101Z,2.8
2023-01-11T07:47:24.755Z,4.6
2023-01-11T07:48:34.465Z,4.2
2023-01-11T07:49:42.119Z,3.4
2023-01-11T07:50:51.798Z,2.5
2023-01-11T07:52:00.480Z,2.8
2023-01-11T07:53:09.183Z,4.3
2023-01-11T07:54:18.958Z,5.2
2023-01-11T07:55:27.631Z,3.4
2023-01-11T07:56:37.306Z,6.5
2023-01-11T07:57:45.960Z,2.9
2023-01-11T07:58:53.621Z,2.6
2023-01-11T08:00:03.310Z,3.3
2023-01-11T08:01:11.974Z,3.5
2023-01-11T08:02:21.718Z,3.3
2023-01-11T08:03:31.515Z,3
2023-01-11T08:04:41.019Z,3.3
2023-01-11T08:05:50.809Z,2.4
2023-01-11T08:07:00.481Z,3.7
2023-01-11T08:08:10.176Z,2.9
2023-01-11T08:09:19.833Z,2.5
2023-01-11T08:10:29.684Z,2.9
2023-01-11T08:11:39.235Z,1.8
2023-01-11T08:12:51.418Z,2.3
2023-01-11T08:13:56.504Z,3.2
2023-01-11T08:15:06.179Z,1.7
2023-01-11T08:16:15.861Z,1.4
2023-01-11T08:17:23.539Z,1.5
2023-01-11T08:18:33.215Z,1.3
2023-01-11T08:19:42.926Z,1.5
2023-01-11T08:20:52.632Z,1.4
2023-01-11T08:22:01.324Z,1.7
2023-01-11T08:23:11.026Z,3.4
2023-01-11T08:24:20.701Z,1.6
2023-01-11T08:25:29.370Z,0.9
2023-01-11T08:26:37.093Z,1.3
2023-01-11T08:27:46.748Z,1.9
2023-01-11T08:28:55.405Z,1
2023-01-11T08:30:05.055Z,0.8
2023-01-11T08:31:13.801Z,1.2
2023-01-11T08:32:22.384Z,1.7
2023-01-11T08:33:32.056Z,1.1
2023-01-11T08:34:40.753Z,1.3
2023-01-11T08:35:51.428Z,2.9
2023-01-11T08:37:01.070Z,1.3
2023-01-11T08:38:10.744Z,1.6
2023-01-11T08:39:20.406Z,1.3
2023-01-11T08:40:29.166Z,1.6
2023-01-11T08:41:36.773Z,2.6
2023-01-11T08:42:46.497Z,1.9
2023-01-11T08:43:56.155Z,2.3
2023-01-11T08:45:03.832Z,2.8
2023-01-11T08:46:13.565Z,2.6
2023-01-11T08:47:22.215Z,2.5
2023-01-11T08:48:30.883Z,3
2023-01-11T08:49:39.599Z,3.1
2023-01-11T08:50:47.333Z,1.9
2023-01-11T08:51:57.073Z,3.9
2023-01-11T08:53:06.696Z,2.1
2023-01-11T08:54:16.365Z,1.3
2023-01-11T08:55:26.049Z,1.6
2023-01-11T08:56:34.734Z,1.2
2023-01-11T08:57:43.477Z,1.1
2023-01-11T08:58:53.174Z,0.7
2023-01-11T09:00:01.864Z,1.2
2023-01-11T09:01:10.569Z,1.6
2023-01-11T09:02:19.280Z,1.7
2023-01-11T09:03:26.990Z,2.2
2023-01-11T09:04:36.650Z,2.1
2023-01-11T09:05:45.349Z,1.6
2023-01-11T09:06:55.016Z,1.1
2023-01-11T09:08:04.747Z,1.3
2023-01-11T09:09:12.431Z,1.7
2023-01-11T09:10:22.120Z,1.1
2023-01-11T09:11:31.771Z,1.6
2023-01-11T09:12:40.477Z,1.4
2023-01-11T09:13:50.176Z,1.2
2023-01-11T09:14:58.843Z,0.9
2023-01-11T09:16:08.557Z,1
2023-01-11T09:17:17.202Z,1.3
2023-01-11T09:18:25.893Z,1
2023-01-11T09:19:35.581Z,0.8
2023-01-11T09:20:44.286Z,0.7
2023-01-11T09:21:52.959Z,0.7
2023-01-11T09:23:02.681Z,1.1
2023-01-11T09:24:12.358Z,0.7
2023-01-11T09:25:20.981Z,1.2
2023-01-11T09:26:30.722Z,0.5
2023-01-11T09:27:39.419Z,0.8
2023-01-11T09:28:48.156Z,2.3
2023-01-11T09:29:57.800Z,2.1
2023-01-11T09:31:06.481Z,1.6
2023-01-11T09:32:16.217Z,0.4
2023-01-11T09:33:24.955Z,1
2023-01-11T09:34:32.625Z,0.5
2023-01-11T09:35:42.309Z,0.8
2023-01-11T09:36:50.986Z,1.3
2023-01-11T09:38:00.729Z,1.1
2023-01-11T09:39:09.425Z,0.7
2023-01-11T09:40:19.138Z,0.6
2023-01-11T09:41:28.825Z,0.4
2023-01-11T09:42:38.498Z,1.2
2023-01-11T09:43:48.191Z,1.1
2023-01-11T09:44:57.845Z,1.1
2023-01-11T09:46:08.417Z,1.5
2023-01-11T09:47:15.205Z,1.4
2023-01-11T09:48:24.863Z,1
2023-01-11T09:49:33.578Z,1.1
2023-01-11T09:50:43.308Z,1
2023-01-11T09:51:52.996Z,0.7
2023-01-11T09:53:00.697Z,0.7
2023-01-11T09:54:10.400Z,0.6
2023-01-11T09:55:19.114Z,0.6
2023-01-11T09:56:28.837Z,0.5
2023-01-11T09:57:38.616Z,0.9
2023-01-11T09:58:46.437Z,0.6
2023-01-11T09:59:55.214Z,0.8
2023-01-11T10:01:05.133Z,0.6
2023-01-11T10:02:17.690Z,0.8
2023-01-11T10:03:27.493Z,0.7
2023-01-11T10:04:35.235Z,0.7
2023-01-11T10:05:44.901Z,0.5
2023-01-11T10:06:54.583Z,0.6
2023-01-11T10:14:01.098Z,0.5
2023-01-11T10:18:24.734Z,0.5
2023-01-11T10:18:24.881Z,0.6
2023-01-11T10:18:25.261Z,0.7
2023-01-11T10:18:58.241Z,0.5
2023-01-11T10:19:49.000Z,0.9
2023-01-11T10:20:58.637Z,0.6
2023-01-11T10:22:07.290Z,0.5
2023-01-11T10:23:15.991Z,0.8
2023-01-11T10:24:25.732Z,0.3
2023-01-11T10:25:35.419Z,0.4
2023-01-11T10:26:45.179Z,0.5
2023-01-11T10:27:54.914Z,1.6
2023-01-11T10:29:03.621Z,0.4
2023-01-11T10:30:13.282Z,0.3
2023-01-11T10:31:22.017Z,0.9
2023-01-11T10:32:30.694Z,0.4
2023-01-11T10:33:39.484Z,0.3
2023-01-11T10:34:48.182Z,0.3
2023-01-11T10:35:56.943Z,0.5
2023-01-11T10:37:06.668Z,0.5
2023-01-11T10:38:15.349Z,0.8
2023-01-11T10:39:25.031Z,0.9
2023-01-11T10:40:33.804Z,0.7
2023-01-11T10:41:43.494Z,0.6
2023-01-11T10:42:53.320Z,0.4
2023-01-11T10:44:03.000Z,0.6
2023-01-11T10:45:12.730Z,0.6
2023-01-11T10:46:21.398Z,0.6
2023-01-11T10:47:30.158Z,0.6
2023-01-11T10:48:39.094Z,0.8
2023-01-11T10:49:48.911Z,0.5
2023-01-11T10:50:57.678Z,0.7
2023-01-11T10:52:07.356Z,0.7
2023-01-11T10:53:16.076Z,0.7
2023-01-11T10:54:24.803Z,0.8
2023-01-11T10:55:34.449Z,0.6
2023-01-11T10:57:02.163Z,0.3
2023-01-11T10:57:59.306Z,0.6
2023-01-11T10:59:04.543Z,1
2023-01-11T11:00:13.329Z,0.6
2023-01-11T11:01:23.083Z,0.5
2023-01-11T11:02:32.827Z,0.6
2023-01-11T11:03:41.397Z,1.8
2023-01-11T11:04:50.241Z,0.6
2023-01-11T11:05:59.917Z,0.3
2023-01-11T11:07:09.615Z,0.2
2023-01-11T11:08:19.316Z,0.2
2023-01-11T11:09:27.032Z,0.4
2023-01-11T11:10:36.761Z,4.8
2023-01-11T11:11:46.468Z,1.1
2023-01-11T11:12:55.140Z,1.2
2023-01-11T11:14:03.849Z,0.4
2023-01-11T11:15:13.503Z,0.4
2023-01-11T11:16:23.287Z,0.3
2023-01-11T11:17:31.921Z,0.6
2023-01-11T11:18:40.622Z,0.8
2023-01-11T11:19:50.324Z,0.4
2023-01-11T11:20:59.022Z,0.4
2023-01-11T11:22:08.742Z,0.7
2023-01-11T11:23:17.421Z,0.4
2023-01-11T11:24:26.169Z,0.5
2023-01-11T11:25:35.817Z,0.7
2023-01-11T11:26:43.556Z,0.4
2023-01-11T11:27:52.303Z,0.9
2023-01-11T11:29:02.005Z,0.4
2023-01-11T11:30:11.747Z,0.4
2023-01-11T11:31:20.501Z,0.4
2023-01-11T11:32:29.157Z,0.4
2023-01-11T11:33:37.869Z,0.4
2023-01-11T11:34:47.565Z,0.3
2023-01-11T11:35:56.224Z,0.6
2023-01-11T11:37:03.959Z,0.3
2023-01-11T11:38:13.699Z,0.3
2023-01-11T11:39:23.364Z,0.3
2023-01-11T11:40:32.056Z,0.5
2023-01-11T11:41:41.822Z,0.8
2023-01-11T11:42:50.514Z,0.2
2023-01-11T11:44:00.200Z,0.4
2023-01-11T11:45:08.939Z,0.4
2023-01-11T11:46:25.761Z,0.3
2023-01-11T11:47:34.366Z,0.8
2023-01-11T11:48:43.011Z,0.3
2023-01-11T11:49:51.679Z,0.4
2023-01-11T11:51:01.409Z,3.4
2023-01-11T11:52:10.098Z,0.5
2023-01-11T11:53:17.760Z,0.3
2023-01-11T11:54:27.455Z,0.4
2023-01-11T11:55:36.118Z,0.3
2023-01-11T11:56:45.808Z,0.3
2023-01-11T11:57:55.463Z,0.3
2023-01-11T11:59:04.120Z,0.3
2023-01-11T12:00:13.773Z,0.7
2023-01-11T12:01:23.451Z,0.4
2023-01-11T12:02:33.206Z,1
2023-01-11T12:03:42.798Z,0.3
2023-01-11T12:04:52.552Z,0.2
2023-01-11T12:06:02.182Z,0.4
2023-01-11T12:07:10.866Z,0.3
2023-01-11T12:08:19.561Z,0.6
2023-01-11T12:09:28.290Z,0.5
2023-01-11T12:10:35.922Z,0.3
2023-01-11T12:11:45.575Z,0.3
2023-01-11T12:12:54.241Z,0.2
2023-01-11T12:14:01.934Z,0.2
2023-01-11T12:15:11.605Z,0.6
2023-01-11T12:16:20.446Z,0.2
2023-01-11T12:17:29.967Z,0.5
2023-01-11T12:18:39.660Z,0.6
2023-01-11T12:19:48.328Z,0.8
2023-01-11T12:20:57.988Z,0.9
2023-01-11T12:22:07.660Z,0.6
2023-01-11T12:23:16.317Z,0.6
2023-01-11T12:24:26.701Z,0.5
2023-01-11T12:25:34.633Z,0.3
2023-01-11T12:26:44.526Z,0.4
2023-01-11T12:27:54.082Z,0.4
2023-01-11T12:29:01.739Z,0.5
2023-01-11T12:30:11.408Z,0.4
2023-01-11T12:31:20.093Z,0.5
2023-01-11T12:32:28.739Z,1.7
2023-01-11T12:33:38.418Z,0.4
2023-01-11T12:34:48.111Z,0.9
2023-01-11T12:35:56.734Z,0.3
2023-01-11T12:37:05.405Z,0.3
2023-01-11T12:38:14.098Z,0.4
2023-01-11T12:39:23.804Z,0.3
2023-01-11T12:40:32.472Z,0.2
2023-01-11T12:41:40.124Z,0.5
2023-01-11T12:42:49.905Z,0.2
2023-01-11T12:43:59.512Z,0.7
2023-01-11T12:45:08.513Z,0.4
2023-01-11T12:46:17.649Z,0.8
2023-01-11T12:47:25.614Z,0.7
2023-01-11T12:48:35.716Z,0.9
2023-01-11T12:49:45.501Z,0.7
2023-01-11T12:50:55.171Z,0.4
2023-01-11T12:52:05.469Z,0.6
2023-01-11T12:53:14.204Z,0.7
2023-01-11T12:54:22.215Z,0.4
2023-01-11T12:55:30.868Z,0.8
2023-01-11T12:56:39.599Z,0.4
2023-01-11T12:57:49.260Z,1.5
2023-01-11T12:58:58.926Z,1.3
2023-01-11T13:00:07.625Z,0.4
2023-01-11T13:01:17.451Z,0.5
2023-01-11T13:02:27.169Z,0.4
2023-01-11T13:03:35.748Z,0.5
2023-01-11T13:04:45.404Z,0.5
2023-01-11T13:05:53.107Z,0.7
2023-01-11T13:07:02.904Z,0.5
2023-01-11T13:08:12.588Z,0.3
2023-01-11T13:09:21.250Z,2.7
2023-01-11T13:10:31.033Z,0.8
2023-01-11T13:11:40.775Z,1
2023-01-11T13:12:49.572Z,0.8
2023-01-11T13:13:58.449Z,2
2023-01-11T13:15:08.392Z,1.3
2023-01-11T13:16:18.221Z,1
2023-01-11T13:17:27.930Z,1.1
2023-01-11T13:18:37.627Z,1.4
2023-01-11T13:19:47.440Z,1.4
2023-01-11T13:21:02.282Z,2
2023-01-11T13:22:07.768Z,1.6
2023-01-11T13:23:17.475Z,1.6
2023-01-11T13:24:25.139Z,1.6
2023-01-11T13:25:34.823Z,1.6
2023-01-11T13:26:43.623Z,1.7
2023-01-11T13:27:52.245Z,1.2
2023-01-11T13:29:01.963Z,1
2023-01-11T13:30:11.692Z,1
2023-01-11T13:31:20.374Z,2.6
2023-01-11T13:32:28.979Z,1.4
2023-01-11T13:33:37.669Z,1.1
2023-01-11T13:34:47.734Z,1.2
2023-01-11T13:35:56.944Z,1.1
2023-01-11T13:37:06.699Z,1.3
2023-01-11T13:38:16.594Z,1.1
2023-01-11T13:39:26.261Z,1.4
2023-01-11T13:40:35.008Z,0.8
2023-01-11T13:41:44.735Z,1.1
2023-01-11T13:42:53.449Z,1
2023-01-11T13:44:03.179Z,1.2
2023-01-11T13:45:12.846Z,1.3
2023-01-11T13:46:20.760Z,1.9
2023-01-11T13:47:30.372Z,1.4
2023-01-11T13:48:39.038Z,1.2
2023-01-11T13:49:48.762Z,1
2023-01-11T13:50:58.478Z,0.7
2023-01-11T13:52:07.235Z,1.2
2023-01-11T13:53:16.949Z,0.9
2023-01-11T13:54:25.692Z,0.8
2023-01-11T13:55:35.274Z,0.7
2023-01-11T13:56:44.982Z,1
2023-01-11T13:57:54.764Z,1.6
2023-01-11T13:59:04.454Z,0.9
2023-01-11T14:00:14.200Z,0.8
2023-01-11T14:01:23.969Z,0.8
2023-01-11T14:02:33.654Z,1.1
2023-01-11T14:03:44.461Z,0.8
2023-01-11T14:04:54.144Z,1.4
2023-01-11T14:06:04.002Z,0.6
2023-01-11T14:07:12.829Z,0.7
2023-01-11T14:08:22.546Z,0.7
2023-01-11T14:09:32.337Z,0.6
2023-01-11T14:10:42.037Z,0.6
2023-01-11T14:11:51.785Z,1.4
2023-01-11T14:13:01.522Z,0.7
2023-01-11T14:14:11.243Z,1.1
2023-01-11T14:15:20.987Z,1
2023-01-11T14:16:29.742Z,0.7
2023-01-11T14:17:39.467Z,0.4
2023-01-11T14:18:49.199Z,0.5
2023-01-11T14:19:58.921Z,0.5
2023-01-11T14:21:07.660Z,0.8
2023-01-11T14:22:17.442Z,0.6
2023-01-11T14:23:27.182Z,0.5
2023-01-11T14:24:36.972Z,1.1
2023-01-11T14:25:45.707Z,1
2023-01-11T14:26:55.649Z,0.3
2023-01-11T14:28:05.381Z,0.3
2023-01-11T14:29:15.134Z,0.7
2023-01-11T14:30:24.877Z,1
2023-01-11T14:31:34.714Z,0.4
2023-01-11T14:32:44.402Z,0.4
2023-01-11T14:33:54.115Z,0.4
2023-01-11T14:35:03.786Z,0.7
2023-01-11T14:36:13.489Z,0.4
2023-01-11T14:37:23.133Z,0.8
2023-01-11T14:38:31.818Z,0.7
2023-01-11T14:39:41.594Z,0.9
2023-01-11T14:40:51.307Z,1.2
2023-01-11T14:42:01.059Z,1.3
2023-01-11T14:43:10.839Z,0.3
2023-01-11T14:44:20.610Z,0.2
2023-01-11T14:45:30.387Z,0.4
2023-01-11T14:46:39.178Z,1.1
2023-01-11T14:47:48.861Z,1.4
2023-01-11T14:48:58.591Z,1.9
2023-01-11T14:50:08.364Z,1.5
2023-01-11T14:51:18.131Z,1.2
2023-01-11T14:52:38.824Z,0.7
2023-01-11T14:53:39.614Z,0.5
2023-01-11T14:54:49.359Z,0.9
2023-01-11T14:55:59.130Z,0.6
2023-01-11T14:57:07.878Z,0.6
2023-01-11T14:58:17.646Z,0.3
2023-01-11T14:59:26.370Z,0.4
2023-01-11T15:00:36.189Z,0.5
2023-01-11T15:01:45.967Z,0.4
2023-01-11T15:02:53.716Z,1.4
2023-01-11T15:04:03.449Z,0.6
2023-01-11T15:05:13.114Z,1.2
2023-01-11T15:06:21.898Z,0.7
2023-01-11T15:07:32.139Z,0.8
2023-01-11T15:08:40.942Z,0.8
2023-01-11T15:09:50.784Z,2.4
2023-01-11T15:10:59.584Z,0.7
2023-01-11T15:12:08.225Z,0.9
2023-01-11T15:13:17.972Z,1.9
2023-01-11T15:14:27.709Z,1.1
2023-01-11T15:15:37.420Z,0.8
2023-01-11T15:16:47.137Z,0.5
2023-01-11T15:17:55.860Z,0.5
2023-01-11T15:19:05.602Z,0.6
2023-01-11T15:20:15.337Z,0.7
2023-01-11T15:21:25.046Z,0.9
2023-01-11T15:22:34.791Z,0.7
2023-01-11T15:23:44.591Z,0.8
2023-01-11T15:24:53.348Z,1
2023-01-11T15:26:03.085Z,1.1
2023-01-11T15:27:11.791Z,0.8
2023-01-11T15:28:21.485Z,0.7
2023-01-11T15:29:31.205Z,1
2023-01-11T15:30:40.949Z,1
2023-01-11T15:31:50.697Z,1.2
2023-01-11T15:33:00.386Z,0.9
2023-01-11T15:34:10.095Z,0.9
2023-01-11T15:35:19.806Z,0.6
2023-01-11T15:36:28.523Z,0.9
2023-01-11T15:37:38.240Z,1.2
2023-01-11T15:38:48.014Z,0.8
2023-01-11T15:39:57.721Z,0.9
2023-01-11T15:41:07.677Z,0.7
2023-01-11T15:42:17.243Z,1
2023-01-11T15:43:26.956Z,1.1
2023-01-11T15:44:35.655Z,0.8
2023-01-11T15:45:44.361Z,1
2023-01-11T15:46:54.249Z,0.9
2023-01-11T15:48:03.900Z,0.9
2023-01-11T15:49:13.616Z,1
2023-01-11T15:50:23.340Z,0.8
2023-01-11T15:51:32.075Z,1.1
2023-01-11T15:52:41.799Z,0.8
2023-01-11T15:53:51.520Z,0.9
2023-01-11T15:55:01.291Z,0.8
2023-01-11T15:56:11.166Z,0.8
2023-01-11T15:57:19.708Z,0.4
2023-01-11T15:58:29.411Z,0.8
2023-01-11T15:59:39.165Z,0.5
2023-01-11T16:00:47.931Z,0.4
2023-01-11T16:01:57.655Z,0.6
2023-01-11T16:03:06.366Z,0.5
2023-01-11T16:04:16.175Z,0.4